Time;durP1;ratioP1;P1;durP2;ratioP2;P2;SDS_P1;SDS_P2;PMS_P1;PMS_P2;Temp;Humidity;BMP_temperature;BMP_pressure;BME280_temperature;BME280_humidity;BME280_pressure;Samples;Min_cycle;Max_cycle;Signal;HPM_P1;HPM_P2
2021/06/17 00:01:22;;;;;;;;;;;;;;;;;;3554323;27;20390;-44
2021/06/17 00:03:03;;;;;;;;;;;;;;;;;;3556245;27;19951;-45
2021/06/17 00:04:44;;;;;;;;;;;;;;;;;;3553214;27;20402;-45
2021/06/17 00:06:25;;;;;;;;;;;;;;;;;;3554701;27;20459;-44
2021/06/17 00:08:05;;;;;;;;;;;;;;;;;;3553422;27;19955;-45
2021/06/17 00:09:46;;;;;;;;;;;;;;;;;;3554640;27;19933;-46
2021/06/17 00:11:27;;;;;;;;;;;;;;;;;;3553843;27;19965;-45
2021/06/17 00:13:08;;;;;;;;;;;;;;;;;;3553533;27;19933;-44
2021/06/17 00:14:49;;;;;;;;;;;;;;;;;;3563035;27;20017;-44
2021/06/17 00:16:30;;;;;;;;;;;;;;;;;;3552834;27;19933;-44
2021/06/17 00:18:11;;;;;;;;;;;;;;;;;;3553772;27;19934;-44
2021/06/17 00:19:52;;;;;;;;;;;;;;;;;;3553290;27;19970;-44
2021/06/17 00:21:33;;;;;;;;;;;;;;;;;;3554044;27;19938;-45
2021/06/17 00:23:14;;;;;;;;;;;;;;;;;;3553295;27;20005;-44
2021/06/17 00:24:55;;;;;;;;;;;;;;;;;;3554825;27;20046;-44
2021/06/17 00:26:36;;;;;;;;;;;;;;;;;;3554733;27;20017;-44
2021/06/17 00:28:17;;;;;;;;;;;;;;;;;;3552823;27;20306;-44
2021/06/17 00:29:57;;;;;;;;;;;;;;;;;;3555718;27;19962;-44
2021/06/17 00:31:39;;;;;;;;;;;;;;;;;;3552978;27;19950;-44
2021/06/17 00:33:20;;;;;;;;;;;;;;;;;;3555609;27;19927;-45
2021/06/17 00:35:01;;;;;;;;;;;;;;;;;;3552954;27;20449;-44
2021/06/17 00:36:42;;;;;;;;;;;;;;;;;;3555341;27;19934;-45
2021/06/17 00:38:23;;;;;;;;;;;;;;;;;;3555368;27;19930;-44
2021/06/17 00:40:04;;;;;;;;;;;;;;;;;;3552884;27;20440;-45
2021/06/17 00:41:45;;;;;;;;;;;;;;;;;;3555535;27;19935;-44
2021/06/17 00:43:26;;;;;;;;;;;;;;;;;;3552983;27;20021;-44
2021/06/17 00:45:06;;;;;;;;;;;;;;;;;;3555587;27;20335;-45
2021/06/17 00:46:48;;;;;;;;;;;;;;;;;;3552969;27;20029;-45
2021/06/17 00:48:29;;;;;;;;;;;;;;;;;;3554179;27;20454;-45
2021/06/17 00:50:10;;;;;;;;;;;;;;;;;;3554952;27;19927;-44
2021/06/17 00:51:52;;;;;;;;;;;;;;;;;;3552391;27;19927;-44
2021/06/17 00:53:33;;;;;;;;;;;;;;;;;;3555399;27;20093;-44
2021/06/17 00:55:14;;;;;;;;;;;;;;;;;;3552847;27;20345;-44
2021/06/17 00:56:54;;;;;;;;;;;;;;;;;;3552624;27;19927;-46
2021/06/17 00:58:35;;;;;;;;;;;;;;;;;;3552839;27;19931;-44
2021/06/17 01:00:16;;;;;;;;;;;;;;;;;;3552795;27;19935;-44
2021/06/17 01:01:58;;;;;;;;;;;;;;;;;;3552546;27;19927;-47
2021/06/17 01:03:40;;;;;;;;;;;;;;;;;;3553750;27;20037;-45
2021/06/17 01:05:21;;;;;;;;;;;;;;;;;;3553032;27;20016;-45
2021/06/17 01:07:02;;;;;;;;;;;;;;;;;;3552342;27;20383;-44
2021/06/17 01:08:43;;;;;;;;;;;;;;;;;;3554189;27;20034;-45
2021/06/17 01:10:25;;;;;;;;;;;;;;;;;;3552969;27;20371;-45
2021/06/17 01:12:06;;;;;;;;;;;;;;;;;;3555062;27;19970;-45
2021/06/17 01:13:47;;;;;;;;;;;;;;;;;;3556497;27;19926;-44
2021/06/17 01:15:28;;;;;;;;;;;;;;;;;;3553041;27;19934;-45
2021/06/17 01:17:09;;;;;;;;;;;;;;;;;;3555512;27;19927;-44
2021/06/17 01:18:50;;;;;;;;;;;;;;;;;;3552447;27;20496;-44
2021/06/17 01:20:30;;;;;;;;;;;;;;;;;;3554108;27;20010;-45
2021/06/17 01:22:11;;;;;;;;;;;;;;;;;;3552659;27;20303;-45
2021/06/17 01:23:53;;;;;;;;;;;;;;;;;;3553776;27;20083;-45
2021/06/17 01:25:34;;;;;;;;;;;;;;;;;;3552249;27;19927;-44
2021/06/17 01:27:15;;;;;;;;;;;;;;;;;;3554075;27;20015;-44
2021/06/17 01:28:56;;;;;;;;;;;;;;;;;;3554028;27;20372;-44
2021/06/17 01:30:37;;;;;;;;;;;;;;;;;;3552566;27;19931;-44
2021/06/17 01:32:18;;;;;;;;;;;;;;;;;;3554848;27;19970;-44
2021/06/17 01:33:59;;;;;;;;;;;;;;;;;;3552606;27;19974;-45
2021/06/17 01:35:40;;;;;;;;;;;;;;;;;;3554792;27;19931;-44
2021/06/17 01:37:21;;;;;;;;;;;;;;;;;;3552943;27;19934;-45
2021/06/17 01:39:02;;;;;;;;;;;;;;;;;;3556510;27;19987;-44
2021/06/17 01:40:43;;;;;;;;;;;;;;;;;;3556034;27;19966;-45
2021/06/17 01:42:24;;;;;;;;;;;;;;;;;;3554726;27;19927;-44
2021/06/17 01:44:05;;;;;;;;;;;;;;;;;;3557448;27;20375;-44
2021/06/17 01:45:46;;;;;;;;;;;;;;;;;;3554758;27;19937;-44
2021/06/17 01:47:27;;;;;;;;;;;;;;;;;;3557187;27;20018;-44
2021/06/17 01:49:08;;;;;;;;;;;;;;;;;;3554943;27;19927;-44
2021/06/17 01:50:49;;;;;;;;;;;;;;;;;;3557227;27;20344;-44
2021/06/17 01:52:30;;;;;;;;;;;;;;;;;;3555026;27;19931;-45
2021/06/17 01:54:20;;;;;;;;;;;;;;;;;;3555173;27;19934;-44
2021/06/17 01:56:01;;;;;;;;;;;;;;;;;;3557066;27;20423;-45
2021/06/17 01:57:42;;;;;;;;;;;;;;;;;;3554955;27;19926;-44
2021/06/17 01:59:23;;;;;;;;;;;;;;;;;;3555998;27;20392;-45
2021/06/17 02:01:04;;;;;;;;;;;;;;;;;;3554624;27;19927;-44
2021/06/17 02:02:45;;;;;;;;;;;;;;;;;;3556000;27;19930;-45
2021/06/17 02:04:26;;;;;;;;;;;;;;;;;;3557051;27;20430;-44
2021/06/17 02:06:07;;;;;;;;;;;;;;;;;;3554355;27;19926;-45
2021/06/17 02:07:48;;;;;;;;;;;;;;;;;;3555940;27;19931;-44
2021/06/17 02:09:29;;;;;;;;;;;;;;;;;;3554427;27;19927;-45
2021/06/17 02:11:10;;;;;;;;;;;;;;;;;;3556867;27;19944;-44
2021/06/17 02:12:51;;;;;;;;;;;;;;;;;;3554530;27;19927;-45
2021/06/17 02:14:32;;;;;;;;;;;;;;;;;;3555375;27;19954;-45
2021/06/17 02:16:13;;;;;;;;;;;;;;;;;;3556181;27;19950;-44
2021/06/17 02:17:54;;;;;;;;;;;;;;;;;;3554538;27;19927;-41
2021/06/17 02:19:37;;;;;;;;;;;;;;;;;;3557103;27;20021;-41
2021/06/17 02:21:18;;;;;;;;;;;;;;;;;;3554205;27;20014;-41
2021/06/17 02:22:59;;;;;;;;;;;;;;;;;;3556972;27;19978;-41
2021/06/17 02:24:40;;;;;;;;;;;;;;;;;;3554497;27;20468;-41
2021/06/17 02:26:21;;;;;;;;;;;;;;;;;;3555382;27;19927;-41
2021/06/17 02:28:01;;;;;;;;;;;;;;;;;;3555856;27;19975;-41
2021/06/17 02:29:42;;;;;;;;;;;;;;;;;;3555408;27;20394;-41
2021/06/17 02:31:23;;;;;;;;;;;;;;;;;;3557178;27;19930;-41
2021/06/17 02:33:04;;;;;;;;;;;;;;;;;;3554162;27;19927;-41
2021/06/17 02:34:45;;;;;;;;;;;;;;;;;;3555312;27;19946;-41
2021/06/17 02:36:26;;;;;;;;;;;;;;;;;;3554113;27;20021;-41
2021/06/17 02:38:07;;;;;;;;;;;;;;;;;;3554441;27;19973;-41
2021/06/17 02:39:48;;;;;;;;;;;;;;;;;;3555310;27;19934;-41
2021/06/17 02:41:29;;;;;;;;;;;;;;;;;;3554491;27;19927;-41
2021/06/17 02:43:10;;;;;;;;;;;;;;;;;;3555711;27;19926;-41
2021/06/17 02:44:51;;;;;;;;;;;;;;;;;;3554160;27;20303;-41
2021/06/17 02:46:32;;;;;;;;;;;;;;;;;;3556658;27;20075;-41
2021/06/17 02:48:13;;;;;;;;;;;;;;;;;;3553997;27;19927;-41
2021/06/17 02:49:54;;;;;;;;;;;;;;;;;;3555489;27;19949;-41
2021/06/17 02:51:35;;;;;;;;;;;;;;;;;;3554137;27;19926;-41
2021/06/17 02:53:16;;;;;;;;;;;;;;;;;;3556368;27;19927;-41
2021/06/17 02:54:56;;;;;;;;;;;;;;;;;;3555959;27;20298;-41
2021/06/17 02:56:37;;;;;;;;;;;;;;;;;;3553686;27;19927;-41
2021/06/17 02:58:18;;;;;;;;;;;;;;;;;;3556407;27;20021;-41
2021/06/17 02:59:59;;;;;;;;;;;;;;;;;;3554020;27;20391;-41
2021/06/17 03:01:40;;;;;;;;;;;;;;;;;;3556432;27;19927;-41
2021/06/17 03:03:21;;;;;;;;;;;;;;;;;;3554120;27;19972;-41
2021/06/17 03:05:02;;;;;;;;;;;;;;;;;;3555158;27;20439;-41
2021/06/17 03:06:43;;;;;;;;;;;;;;;;;;3555530;27;20017;-41
2021/06/17 03:08:24;;;;;;;;;;;;;;;;;;3554445;27;19927;-41
2021/06/17 03:10:05;;;;;;;;;;;;;;;;;;3555550;27;19936;-41
2021/06/17 03:11:46;;;;;;;;;;;;;;;;;;3553849;27;20414;-41
2021/06/17 03:13:27;;;;;;;;;;;;;;;;;;3557796;27;20971;-41
2021/06/17 03:15:08;;;;;;;;;;;;;;;;;;3568392;27;19927;-41
2021/06/17 03:16:50;;;;;;;;;;;;;;;;;;3556013;27;19979;-42
2021/06/17 03:18:31;;;;;;;;;;;;;;;;;;3555693;27;19931;-41
2021/06/17 03:20:12;;;;;;;;;;;;;;;;;;3553459;27;19931;-41
2021/06/17 03:21:53;;;;;;;;;;;;;;;;;;3556553;27;19979;-42
2021/06/17 03:23:34;;;;;;;;;;;;;;;;;;3553675;27;19927;-41
2021/06/17 03:25:14;;;;;;;;;;;;;;;;;;3553574;27;19927;-41
2021/06/17 03:26:56;;;;;;;;;;;;;;;;;;3553764;27;19971;-41
2021/06/17 03:28:36;;;;;;;;;;;;;;;;;;3554744;27;19927;-41
2021/06/17 03:30:17;;;;;;;;;;;;;;;;;;3554826;27;19926;-41
2021/06/17 03:31:58;;;;;;;;;;;;;;;;;;3553637;27;19970;-41
2021/06/17 03:33:39;;;;;;;;;;;;;;;;;;3555272;27;19926;-41
2021/06/17 03:35:20;;;;;;;;;;;;;;;;;;3553387;27;19965;-41
2021/06/17 03:37:01;;;;;;;;;;;;;;;;;;3555813;27;19934;-42
2021/06/17 03:38:42;;;;;;;;;;;;;;;;;;3553727;27;19927;-41
2021/06/17 03:40:23;;;;;;;;;;;;;;;;;;3554976;27;20395;-41
2021/06/17 03:42:04;;;;;;;;;;;;;;;;;;3554005;27;19942;-41
2021/06/17 03:43:45;;;;;;;;;;;;;;;;;;3554379;27;20017;-41
2021/06/17 03:45:26;;;;;;;;;;;;;;;;;;3556398;27;19953;-41
2021/06/17 03:47:07;;;;;;;;;;;;;;;;;;3553175;27;19938;-41
2021/06/17 03:48:48;;;;;;;;;;;;;;;;;;3556293;27;20025;-41
2021/06/17 03:50:29;;;;;;;;;;;;;;;;;;3553432;27;20397;-42
2021/06/17 03:52:10;;;;;;;;;;;;;;;;;;3554587;27;19934;-42
2021/06/17 03:53:51;;;;;;;;;;;;;;;;;;3553714;27;19971;-45
2021/06/17 03:55:32;;;;;;;;;;;;;;;;;;3557357;27;19949;-45
2021/06/17 03:57:13;;;;;;;;;;;;;;;;;;3556030;27;20009;-44
2021/06/17 03:58:54;;;;;;;;;;;;;;;;;;3553075;27;19927;-44
2021/06/17 04:00:35;;;;;;;;;;;;;;;;;;3555503;27;19927;-45
2021/06/17 04:02:16;;;;;;;;;;;;;;;;;;3558233;27;20356;-44
2021/06/17 04:03:57;;;;;;;;;;;;;;;;;;3558301;27;19988;-46
2021/06/17 04:05:38;;;;;;;;;;;;;;;;;;3553378;27;19927;-46
2021/06/17 04:07:19;;;;;;;;;;;;;;;;;;3554469;27;20538;-45
2021/06/17 04:09:00;;;;;;;;;;;;;;;;;;3555221;27;20387;-45
2021/06/17 04:10:41;;;;;;;;;;;;;;;;;;3553572;27;19988;-44
2021/06/17 04:12:21;;;;;;;;;;;;;;;;;;3555587;27;19951;-45
2021/06/17 04:14:02;;;;;;;;;;;;;;;;;;3561142;27;19927;-42
2021/06/17 04:15:43;;;;;;;;;;;;;;;;;;3560361;27;19934;-42
2021/06/17 04:17:24;;;;;;;;;;;;;;;;;;3553368;27;20276;-42
2021/06/17 04:19:05;;;;;;;;;;;;;;;;;;3555600;27;19934;-41
2021/06/17 04:20:46;;;;;;;;;;;;;;;;;;3554652;27;19927;-41
2021/06/17 04:22:27;;;;;;;;;;;;;;;;;;3553012;27;19931;-42
2021/06/17 04:24:08;;;;;;;;;;;;;;;;;;3555747;27;20033;-42
2021/06/17 04:25:49;;;;;;;;;;;;;;;;;;3552893;27;19970;-42
2021/06/17 04:27:30;;;;;;;;;;;;;;;;;;3553934;27;19937;-42
2021/06/17 04:29:11;;;;;;;;;;;;;;;;;;3553374;27;20014;-43
2021/06/17 04:30:52;;;;;;;;;;;;;;;;;;3554402;27;19926;-42
2021/06/17 04:32:33;;;;;;;;;;;;;;;;;;3553625;27;19969;-42
2021/06/17 04:34:14;;;;;;;;;;;;;;;;;;3552710;27;19927;-41
2021/06/17 04:35:55;;;;;;;;;;;;;;;;;;3555681;27;19927;-45
2021/06/17 04:37:36;;;;;;;;;;;;;;;;;;3552935;27;19934;-45
2021/06/17 04:39:17;;;;;;;;;;;;;;;;;;3554251;27;20327;-46
2021/06/17 04:40:58;;;;;;;;;;;;;;;;;;3552993;27;19963;-45
2021/06/17 04:42:39;;;;;;;;;;;;;;;;;;3554437;27;19970;-45
2021/06/17 04:44:20;;;;;;;;;;;;;;;;;;3554095;27;20032;-42
2021/06/17 04:46:01;;;;;;;;;;;;;;;;;;3553170;27;19966;-42
2021/06/17 04:47:42;;;;;;;;;;;;;;;;;;3555568;27;19927;-42
2021/06/17 04:49:23;;;;;;;;;;;;;;;;;;3552938;27;20414;-42
2021/06/17 04:51:04;;;;;;;;;;;;;;;;;;3552944;27;20348;-42
2021/06/17 04:52:45;;;;;;;;;;;;;;;;;;3552843;27;19933;-42
2021/06/17 04:54:26;;;;;;;;;;;;;;;;;;3555358;27;19973;-42
2021/06/17 04:56:07;;;;;;;;;;;;;;;;;;3554253;27;19992;-42
2021/06/17 04:57:48;;;;;;;;;;;;;;;;;;3553685;27;19927;-42
2021/06/17 04:59:29;;;;;;;;;;;;;;;;;;3561516;27;20387;-42
2021/06/17 05:01:10;;;;;;;;;;;;;;;;;;3552491;27;19930;-42
2021/06/17 05:02:51;;;;;;;;;;;;;;;;;;3553962;27;20026;-42
2021/06/17 05:04:34;;;;;;;;;;;;;;;;;;3552742;27;20352;-42
2021/06/17 05:06:17;;;;;;;;;;;;;;;;;;3553990;27;19927;-42
2021/06/17 05:12:00;;;;;;;;;;;;;;;;;;3556535;27;19927;-45
2021/06/17 05:13:43;;;;;;;;;;;;;;;;;;3559737;27;19934;-45
2021/06/17 05:15:24;;;;;;;;;;;;;;;;;;3557756;27;20014;-46
2021/06/17 05:17:04;;;;;;;;;;;;;;;;;;3556974;27;19930;-42
2021/06/17 05:18:45;;;;;;;;;;;;;;;;;;3556991;27;19927;-41
2021/06/17 05:20:27;;;;;;;;;;;;;;;;;;3556293;27;20153;-44
2021/06/17 05:22:08;;;;;;;;;;;;;;;;;;3555041;27;19959;-44
2021/06/17 05:23:49;;;;;;;;;;;;;;;;;;3556624;27;20307;-45
2021/06/17 05:25:30;;;;;;;;;;;;;;;;;;3555318;27;20395;-44
2021/06/17 05:27:11;;;;;;;;;;;;;;;;;;3556098;27;20436;-45
2021/06/17 05:28:52;;;;;;;;;;;;;;;;;;3558151;27;20379;-42
2021/06/17 05:30:32;;;;;;;;;;;;;;;;;;3554857;27;20387;-42
2021/06/17 05:32:15;;;;;;;;;;;;;;;;;;3557373;27;20589;-41
2021/06/17 05:33:56;;;;;;;;;;;;;;;;;;3555048;27;19974;-41
2021/06/17 05:35:37;;;;;;;;;;;;;;;;;;3554937;27;19967;-42
2021/06/17 05:37:18;;;;;;;;;;;;;;;;;;3555679;27;19927;-42
2021/06/17 05:38:59;;;;;;;;;;;;;;;;;;3555617;27;20326;-41
2021/06/17 05:40:39;;;;;;;;;;;;;;;;;;3557860;27;20422;-41
2021/06/17 05:42:20;;;;;;;;;;;;;;;;;;3554660;27;19926;-41
2021/06/17 05:44:01;;;;;;;;;;;;;;;;;;3555967;27;19934;-41
2021/06/17 05:45:42;;;;;;;;;;;;;;;;;;3555156;27;19927;-41
2021/06/17 05:47:23;;;;;;;;;;;;;;;;;;3556363;27;19927;-41
2021/06/17 05:49:04;;;;;;;;;;;;;;;;;;3554998;27;19927;-41
2021/06/17 05:50:45;;;;;;;;;;;;;;;;;;3555929;27;20017;-41
2021/06/17 05:52:26;;;;;;;;;;;;;;;;;;3557875;27;19927;-41
2021/06/17 05:54:07;;;;;;;;;;;;;;;;;;3554854;27;20021;-42
2021/06/17 05:55:48;;;;;;;;;;;;;;;;;;3554410;27;19927;-42
2021/06/17 05:57:29;;;;;;;;;;;;;;;;;;3554653;27;19934;-42
2021/06/17 05:59:10;;;;;;;;;;;;;;;;;;3557309;27;20396;-42
2021/06/17 06:00:51;;;;;;;;;;;;;;;;;;3554782;27;19927;-41
2021/06/17 06:02:32;;;;;;;;;;;;;;;;;;3554919;27;19955;-42
2021/06/17 06:04:13;;;;;;;;;;;;;;;;;;3556974;27;20146;-42
2021/06/17 06:05:54;;;;;;;;;;;;;;;;;;3554697;27;19927;-41
2021/06/17 06:07:36;;;;;;;;;;;;;;;;;;3555858;27;20399;-42
2021/06/17 06:09:17;;;;;;;;;;;;;;;;;;3554469;27;20372;-42
2021/06/17 06:10:58;;;;;;;;;;;;;;;;;;3555440;27;19927;-42
2021/06/17 06:12:39;;;;;;;;;;;;;;;;;;3554545;27;19927;-42
2021/06/17 06:14:20;;;;;;;;;;;;;;;;;;3555414;27;20026;-42
2021/06/17 06:16:01;;;;;;;;;;;;;;;;;;3556412;27;19927;-44
2021/06/17 06:17:46;;;;;;;;;;;;;;;;;;3554755;27;19927;-45
2021/06/17 06:19:28;;;;;;;;;;;;;;;;;;3555869;27;19927;-45
2021/06/17 06:21:09;;;;;;;;;;;;;;;;;;3554445;27;19927;-46
2021/06/17 06:22:50;;;;;;;;;;;;;;;;;;3556663;27;19927;-42
2021/06/17 06:24:31;;;;;;;;;;;;;;;;;;3554443;27;19926;-44
2021/06/17 06:26:12;;;;;;;;;;;;;;;;;;3556896;27;20013;-44
2021/06/17 06:27:53;;;;;;;;;;;;;;;;;;3556306;27;19927;-45
2021/06/17 06:29:34;;;;;;;;;;;;;;;;;;3554795;27;20037;-44
2021/06/17 06:31:15;;;;;;;;;;;;;;;;;;3556806;27;20025;-45
2021/06/17 06:32:56;;;;;;;;;;;;;;;;;;3554190;27;20295;-44
2021/06/17 06:34:37;;;;;;;;;;;;;;;;;;3556876;27;19931;-45
2021/06/17 06:36:19;;;;;;;;;;;;;;;;;;3554558;27;20013;-44
2021/06/17 06:38:00;;;;;;;;;;;;;;;;;;3556879;27;19975;-44
2021/06/17 06:39:40;;;;;;;;;;;;;;;;;;3554431;27;20017;-44
2021/06/17 06:41:21;;;;;;;;;;;;;;;;;;3555176;27;19927;-44
2021/06/17 06:43:02;;;;;;;;;;;;;;;;;;3555480;27;19930;-44
2021/06/17 06:44:43;;;;;;;;;;;;;;;;;;3554106;27;19934;-44
2021/06/17 06:46:24;;;;;;;;;;;;;;;;;;3556826;27;19931;-46
2021/06/17 06:48:05;;;;;;;;;;;;;;;;;;3554413;27;20023;-45
2021/06/17 06:49:46;;;;;;;;;;;;;;;;;;3555283;27;19931;-42
2021/06/17 06:51:27;;;;;;;;;;;;;;;;;;3560908;27;19930;-43
2021/06/17 06:53:08;;;;;;;;;;;;;;;;;;3554496;27;19927;-42
2021/06/17 06:54:49;;;;;;;;;;;;;;;;;;3556176;27;20333;-42
2021/06/17 06:56:30;;;;;;;;;;;;;;;;;;3554632;27;20025;-42
2021/06/17 06:58:11;;;;;;;;;;;;;;;;;;3556444;27;19934;-43
2021/06/17 06:59:53;;;;;;;;;;;;;;;;;;3554179;27;19927;-43
2021/06/17 07:01:36;;;;;;;;;;;;;;;;;;3555127;27;20025;-42
2021/06/17 07:03:17;;;;;;;;;;;;;;;;;;3554805;27;19931;-43
2021/06/17 07:04:58;;;;;;;;;;;;;;;;;;3555817;27;19934;-42
2021/06/17 07:06:39;;;;;;;;;;;;;;;;;;3556671;27;19931;-43
2021/06/17 07:08:20;;;;;;;;;;;;;;;;;;3553919;27;20222;-43
2021/06/17 07:10:01;;;;;;;;;;;;;;;;;;3555496;27;19963;-44
2021/06/17 07:11:43;;;;;;;;;;;;;;;;;;3554373;27;20019;-45
2021/06/17 07:13:25;;;;;;;;;;;;;;;;;;3558724;27;20307;-44
2021/06/17 07:15:06;;;;;;;;;;;;;;;;;;3567162;27;20635;-44
2021/06/17 07:16:47;;;;;;;;;;;;;;;;;;3555169;27;19934;-46
2021/06/17 07:18:28;;;;;;;;;;;;;;;;;;3555548;27;19999;-45
2021/06/17 07:20:09;;;;;;;;;;;;;;;;;;3553643;27;19927;-42
2021/06/17 07:21:51;;;;;;;;;;;;;;;;;;3556537;27;19965;-44
2021/06/17 07:23:33;;;;;;;;;;;;;;;;;;3554100;27;20018;-45
2021/06/17 07:25:14;;;;;;;;;;;;;;;;;;3556769;27;19966;-44
2021/06/17 07:26:55;;;;;;;;;;;;;;;;;;3553413;27;20072;-44
2021/06/17 07:28:36;;;;;;;;;;;;;;;;;;3555634;27;20025;-44
2021/06/17 07:30:17;;;;;;;;;;;;;;;;;;3554841;27;19927;-46
2021/06/17 07:31:58;;;;;;;;;;;;;;;;;;3553247;27;19926;-44
2021/06/17 07:33:39;;;;;;;;;;;;;;;;;;3555076;27;19948;-44
2021/06/17 07:35:20;;;;;;;;;;;;;;;;;;3552339;27;19938;-44
2021/06/17 07:37:01;;;;;;;;;;;;;;;;;;3554985;27;19934;-44
2021/06/17 07:38:42;;;;;;;;;;;;;;;;;;3553828;27;19927;-44
2021/06/17 07:40:23;;;;;;;;;;;;;;;;;;3554510;27;19927;-44
2021/06/17 07:42:04;;;;;;;;;;;;;;;;;;3555392;27;19927;-45
2021/06/17 07:43:45;;;;;;;;;;;;;;;;;;3554182;27;20391;-44
2021/06/17 07:45:30;;;;;;;;;;;;;;;;;;3563035;27;19976;-43
2021/06/17 07:47:11;;;;;;;;;;;;;;;;;;3553177;27;20472;-44
2021/06/17 07:48:52;;;;;;;;;;;;;;;;;;3556240;27;19967;-47
2021/06/17 07:50:32;;;;;;;;;;;;;;;;;;3553600;27;20392;-44
2021/06/17 07:52:14;;;;;;;;;;;;;;;;;;3555788;27;20022;-43
2021/06/17 07:53:58;;;;;;;;;;;;;;;;;;3555105;27;19927;-43
2021/06/17 07:55:39;;;;;;;;;;;;;;;;;;3553666;27;20008;-43
2021/06/17 07:57:20;;;;;;;;;;;;;;;;;;3555885;27;20871;-43
2021/06/17 07:59:01;;;;;;;;;;;;;;;;;;3553518;27;19927;-43
2021/06/17 08:00:42;;;;;;;;;;;;;;;;;;3556298;27;19927;-43
2021/06/17 08:02:26;;;;;;;;;;;;;;;;;;3553338;27;20347;-43
2021/06/17 08:04:07;;;;;;;;;;;;;;;;;;3556155;27;19970;-43
2021/06/17 08:05:48;;;;;;;;;;;;;;;;;;3553777;27;19927;-43
2021/06/17 08:07:29;;;;;;;;;;;;;;;;;;3553950;27;20013;-45
2021/06/17 08:09:10;;;;;;;;;;;;;;;;;;3556792;27;19934;-43
2021/06/17 08:10:51;;;;;;;;;;;;;;;;;;3553115;27;19962;-44
2021/06/17 08:12:32;;;;;;;;;;;;;;;;;;3554617;27;19927;-43
2021/06/17 08:14:16;;;;;;;;;;;;;;;;;;3555516;27;20349;-44
2021/06/17 08:15:57;;;;;;;;;;;;;;;;;;3554637;27;20503;-45
2021/06/17 08:17:38;;;;;;;;;;;;;;;;;;3555059;27;19939;-45
2021/06/17 08:19:25;;;;;;;;;;;;;;;;;;3552892;27;20050;-43
2021/06/17 08:21:06;;;;;;;;;;;;;;;;;;3554246;27;19926;-43
2021/06/17 08:22:47;;;;;;;;;;;;;;;;;;3553091;27;19931;-43
2021/06/17 08:24:28;;;;;;;;;;;;;;;;;;3555577;27;19927;-43
2021/06/17 08:26:09;;;;;;;;;;;;;;;;;;3552989;27;19966;-44
2021/06/17 08:27:50;;;;;;;;;;;;;;;;;;3554234;27;20013;-46
2021/06/17 08:29:31;;;;;;;;;;;;;;;;;;3555050;27;19927;-44
2021/06/17 08:31:12;;;;;;;;;;;;;;;;;;3553471;27;19950;-44
2021/06/17 08:32:53;;;;;;;;;;;;;;;;;;3555677;27;19931;-44
2021/06/17 08:34:34;;;;;;;;;;;;;;;;;;3552950;27;20422;-43
2021/06/17 08:36:16;;;;;;;;;;;;;;;;;;3554109;27;19927;-43
2021/06/17 08:37:57;;;;;;;;;;;;;;;;;;3553202;27;19938;-43
2021/06/17 08:39:38;;;;;;;;;;;;;;;;;;3554212;27;19927;-43
2021/06/17 08:41:19;;;;;;;;;;;;;;;;;;3554222;27;19927;-44
2021/06/17 08:43:03;;;;;;;;;;;;;;;;;;3553569;27;20017;-43
2021/06/17 08:44:44;;;;;;;;;;;;;;;;;;3564094;27;19966;-43
2021/06/17 08:46:25;;;;;;;;;;;;;;;;;;3554460;27;19927;-44
2021/06/17 08:48:06;;;;;;;;;;;;;;;;;;3560301;27;20007;-43
2021/06/17 08:49:50;;;;;;;;;;;;;;;;;;3557980;27;19975;-43
2021/06/17 08:51:31;;;;;;;;;;;;;;;;;;3560002;27;19978;-43
2021/06/17 08:53:12;;;;;;;;;;;;;;;;;;3559363;27;19933;-43
2021/06/17 08:54:53;;;;;;;;;;;;;;;;;;3558318;27;20023;-43
2021/06/17 08:56:34;;;;;;;;;;;;;;;;;;3560480;27;19926;-43
2021/06/17 08:58:15;;;;;;;;;;;;;;;;;;3557419;27;20387;-45
2021/06/17 08:59:56;;;;;;;;;;;;;;;;;;3560445;27;19927;-45
2021/06/17 09:01:37;;;;;;;;;;;;;;;;;;3557570;27;19927;-44
2021/06/17 09:03:18;;;;;;;;;;;;;;;;;;3558784;27;19977;-44
2021/06/17 09:04:59;;;;;;;;;;;;;;;;;;3558416;27;20392;-44
2021/06/17 09:06:40;;;;;;;;;;;;;;;;;;3559027;27;19934;-45
2021/06/17 09:08:21;;;;;;;;;;;;;;;;;;3559939;27;19931;-45
2021/06/17 09:10:05;;;;;;;;;;;;;;;;;;3557351;27;19933;-45
2021/06/17 09:11:46;;;;;;;;;;;;;;;;;;3560023;27;19966;-44
2021/06/17 09:13:27;;;;;;;;;;;;;;;;;;3560215;27;20382;-44
2021/06/17 09:15:08;;;;;;;;;;;;;;;;;;3560599;27;19930;-44
2021/06/17 09:16:49;;;;;;;;;;;;;;;;;;3556956;27;19970;-44
2021/06/17 09:18:30;;;;;;;;;;;;;;;;;;3557694;27;19927;-45
2021/06/17 09:20:11;;;;;;;;;;;;;;;;;;3558442;27;20310;-44
2021/06/17 09:21:52;;;;;;;;;;;;;;;;;;3557094;27;19978;-46
2021/06/17 09:23:33;;;;;;;;;;;;;;;;;;3558562;27;19927;-44
2021/06/17 09:25:15;;;;;;;;;;;;;;;;;;3557374;27;20380;-45
2021/06/17 09:26:57;;;;;;;;;;;;;;;;;;3558558;27;20337;-44
2021/06/17 09:28:38;;;;;;;;;;;;;;;;;;3557111;27;19931;-45
2021/06/17 09:30:19;;;;;;;;;;;;;;;;;;3559042;27;20017;-45
2021/06/17 09:32:00;;;;;;;;;;;;;;;;;;3558584;27;19927;-44
2021/06/17 09:33:41;;;;;;;;;;;;;;;;;;3557218;27;20319;-45
2021/06/17 09:35:22;;;;;;;;;;;;;;;;;;3559862;27;19934;-44
2021/06/17 09:37:04;;;;;;;;;;;;;;;;;;3560253;27;19938;-48
2021/06/17 09:38:45;;;;;;;;;;;;;;;;;;3563595;27;19931;-43
2021/06/17 09:40:26;;;;;;;;;;;;;;;;;;3556529;27;20078;-44
2021/06/17 09:42:07;;;;;;;;;;;;;;;;;;3558739;27;19974;-44
2021/06/17 09:43:47;;;;;;;;;;;;;;;;;;3558598;27;20415;-43
2021/06/17 09:45:29;;;;;;;;;;;;;;;;;;3556808;27;20021;-44
2021/06/17 09:47:10;;;;;;;;;;;;;;;;;;3559669;27;19995;-43
2021/06/17 09:48:51;;;;;;;;;;;;;;;;;;3557389;27;19971;-43
2021/06/17 09:50:32;;;;;;;;;;;;;;;;;;3559523;27;19927;-44
2021/06/17 09:52:13;;;;;;;;;;;;;;;;;;3557252;27;19926;-44
2021/06/17 09:53:54;;;;;;;;;;;;;;;;;;3557084;27;19975;-43
2021/06/17 09:55:35;;;;;;;;;;;;;;;;;;3559281;27;20319;-43
2021/06/17 09:57:19;;;;;;;;;;;;;;;;;;3557160;27;19931;-44
2021/06/17 09:59:00;;;;;;;;;;;;;;;;;;3554875;27;19926;-44
2021/06/17 10:00:41;;;;;;;;;;;;;;;;;;3555131;27;19927;-44
2021/06/17 10:02:23;;;;;;;;;;;;;;;;;;3556714;27;20323;-45
2021/06/17 10:04:04;;;;;;;;;;;;;;;;;;3554691;27;20407;-44
2021/06/17 10:05:44;;;;;;;;;;;;;;;;;;3556254;27;20009;-43
2021/06/17 10:07:25;;;;;;;;;;;;;;;;;;3555245;27;20291;-44
2021/06/17 10:09:06;;;;;;;;;;;;;;;;;;3555234;27;20384;-45
2021/06/17 10:10:47;;;;;;;;;;;;;;;;;;3555787;27;20300;-45
2021/06/17 10:12:28;;;;;;;;;;;;;;;;;;3554441;27;20034;-44
2021/06/17 10:14:09;;;;;;;;;;;;;;;;;;3556659;27;20356;-44
2021/06/17 10:15:50;;;;;;;;;;;;;;;;;;3555002;27;19975;-43
2021/06/17 10:17:31;;;;;;;;;;;;;;;;;;3555435;27;20037;-44
2021/06/17 10:19:12;;;;;;;;;;;;;;;;;;3556543;27;19930;-44
2021/06/17 10:20:53;;;;;;;;;;;;;;;;;;3554423;27;19972;-44
2021/06/17 10:22:37;;;;;;;;;;;;;;;;;;3557077;27;20401;-45
2021/06/17 10:24:17;;;;;;;;;;;;;;;;;;3554531;27;20027;-46
2021/06/17 10:25:58;;;;;;;;;;;;;;;;;;3555935;27;19934;-45
2021/06/17 10:27:39;;;;;;;;;;;;;;;;;;3554754;27;19934;-44
2021/06/17 10:29:20;;;;;;;;;;;;;;;;;;3555682;27;19937;-45
2021/06/17 10:31:01;;;;;;;;;;;;;;;;;;3555312;27;19927;-44
2021/06/17 10:32:43;;;;;;;;;;;;;;;;;;3555826;27;19931;-44
2021/06/17 10:34:23;;;;;;;;;;;;;;;;;;3556993;27;19978;-43
2021/06/17 10:36:04;;;;;;;;;;;;;;;;;;3559556;27;19933;-44
2021/06/17 10:37:45;;;;;;;;;;;;;;;;;;3562951;27;20272;-45
2021/06/17 10:39:26;;;;;;;;;;;;;;;;;;3554535;27;20391;-45
2021/06/17 10:41:07;;;;;;;;;;;;;;;;;;3556620;27;19927;-44
2021/06/17 10:42:48;;;;;;;;;;;;;;;;;;3554965;27;20302;-44
2021/06/17 10:44:29;;;;;;;;;;;;;;;;;;3557407;27;19927;-45
2021/06/17 10:46:09;;;;;;;;;;;;;;;;;;3556277;27;19927;-43
2021/06/17 10:47:51;;;;;;;;;;;;;;;;;;3553903;27;19927;-43
2021/06/17 10:49:32;;;;;;;;;;;;;;;;;;3555133;27;20407;-46
2021/06/17 10:51:14;;;;;;;;;;;;;;;;;;3554128;27;19927;-45
2021/06/17 10:52:54;;;;;;;;;;;;;;;;;;3555792;27;20019;-43
2021/06/17 10:54:35;;;;;;;;;;;;;;;;;;3554032;27;20460;-44
2021/06/17 10:56:16;;;;;;;;;;;;;;;;;;3555492;27;20454;-44
2021/06/17 10:57:57;;;;;;;;;;;;;;;;;;3555655;27;20415;-44
2021/06/17 10:59:38;;;;;;;;;;;;;;;;;;3568726;27;19983;-43
2021/06/17 11:01:19;;;;;;;;;;;;;;;;;;3559508;27;20463;-43
2021/06/17 11:03:00;;;;;;;;;;;;;;;;;;3556260;27;19934;-44
2021/06/17 11:04:44;;;;;;;;;;;;;;;;;;3554734;27;20303;-44
2021/06/17 11:06:24;;;;;;;;;;;;;;;;;;3555064;27;19933;-45
2021/06/17 11:08:05;;;;;;;;;;;;;;;;;;3554267;27;19949;-44
2021/06/17 11:09:47;;;;;;;;;;;;;;;;;;3553929;27;19949;-44
2021/06/17 11:11:27;;;;;;;;;;;;;;;;;;3554105;27;19991;-45
2021/06/17 11:13:08;;;;;;;;;;;;;;;;;;3554929;27;19938;-44
2021/06/17 11:14:49;;;;;;;;;;;;;;;;;;3566420;27;19927;-45
2021/06/17 11:16:30;;;;;;;;;;;;;;;;;;3554852;27;19934;-44
2021/06/17 11:18:11;;;;;;;;;;;;;;;;;;3555793;27;19934;-45
2021/06/17 11:19:52;;;;;;;;;;;;;;;;;;3553617;27;20399;-45
2021/06/17 11:21:33;;;;;;;;;;;;;;;;;;3555101;27;19933;-45
2021/06/17 11:23:14;;;;;;;;;;;;;;;;;;3553975;27;19931;-45
2021/06/17 11:24:55;;;;;;;;;;;;;;;;;;3555156;27;20316;-44
2021/06/17 11:26:36;;;;;;;;;;;;;;;;;;3554814;27;19933;-45
2021/06/17 11:28:35;;;;;;;;;;;;;;;;;;3553439;27;20378;-45
2021/06/17 11:30:16;;;;;;;;;;;;;;;;;;3556454;27;20025;-45
2021/06/17 11:31:57;;;;;;;;;;;;;;;;;;3553579;27;20376;-46
2021/06/17 11:33:44;;;;;;;;;;;;;;;;;;3556224;27;19930;-45
2021/06/17 11:35:25;;;;;;;;;;;;;;;;;;3554126;27;19934;-46